INFORMAÇÕES DO AERODROMO
Icao Aerodromo KSRR Nome do Aerodromo Sierra Blanca Regional Airport Cidade Ruidoso
Código GPS KSRR Elevação Média 6814 ft Tipo de Aerodromo Aeroporto Médio Porte

INFORMAÇÃO DE PISTA
Pista 06 Comprimento da Pista 8099 ft Largura da Pista 100 ft
Elevação da Pista 6814 ft Distância de Area de Escape da Pista 0 ft Orientação da Pista 71
Pista 24 Comprimento da Pista 8099 ft Largura da Pista 100 ft
Elevação da Pista 6751 ft Distância de Area de Escape da Pista 0 ft Orientação da Pista 251
Pista 12 Comprimento da Pista 6500 ft Largura da Pista 75 ft
Elevação da Pista 6769 ft Distância de Area de Escape da Pista 0 ft Orientação da Pista 130
Pista 30 Comprimento da Pista 6500 ft Largura da Pista 75 ft
Elevação da Pista 6718 ft Distância de Area de Escape da Pista 0 ft Orientação da Pista 310

FREQUÊNCIAS DO AERODROMO
Tipo AWOS Nome AWOS 3 Frequência 126.475 MHZ
Tipo CNTR Nome ALBUQUERQU Frequência 132.65 MHZ
Tipo FSS Nome ALBUQUERQU Frequência 122.25 MHZ
Tipo UNIC Nome CTAF/UNICO Frequência 122.8 MHZ

INFORMAÇÕES DE NAVEGAÇÃO PRÓXIMO AO AERODROMO
Tipo NDB Nome Capitan Frequência 278 KHZ

Informações de Meteorologia(METAR atual)
METAR DE KSRR
ADDS - METARS form results

(0050 UTC 21 April 2019)
Data provider http://aviationweather.gov/metar/data/
 
METAR text: KSRR 210035Z AUTO 24017G25KT 10SM CLR 22/M09 A3000 RMK AO2
Conditions at: KSRR (SIERRA B/RUIDOSO, NM, US) observed 0035 UTC 21 April 2019
Temperature: 22.0°C (72°F)
Dewpoint: -9.0°C (16°F) [RH = 12%]
Pressure (altimeter): 30.00 inches Hg (1016.0 mb)
Winds: from the WSW (240 degrees) at 20 MPH (17 knots; 8.7 m/s)
gusting to 29 MPH (25 knots; 12.9 m/s)
Visibility: 10 or more miles (16+ km)
Ceiling: at least 12,000 feet AGL
Clouds: sky clear below 12,000 feet AGL
Weather: automated observation with no human augmentation;
there may or may not be significant weather present at this time

METAR text: KSRR 210015Z AUTO 23015G27KT 10SM CLR 22/M08 A3000 RMK AO2
Conditions at: KSRR (SIERRA B/RUIDOSO, NM, US) observed 0015 UTC 21 April 2019
Temperature: 22.0°C (72°F)
Dewpoint: -8.0°C (18°F) [RH = 13%]
Pressure (altimeter): 30.00 inches Hg (1016.0 mb)
Winds: from the SW (230 degrees) at 17 MPH (15 knots; 7.7 m/s)
gusting to 31 MPH (27 knots; 13.9 m/s)
Visibility: 10 or more miles (16+ km)
Ceiling: at least 12,000 feet AGL
Clouds: sky clear below 12,000 feet AGL
Weather: automated observation with no human augmentation;
there may or may not be significant weather present at this time

METAR text: KSRR 202355Z AUTO 23027G34KT 10SM CLR 22/M08 A3000 RMK AO2
Conditions at: KSRR (SIERRA B/RUIDOSO, NM, US) observed 2355 UTC 20 April 2019
Temperature: 22.0°C (72°F)
Dewpoint: -8.0°C (18°F) [RH = 13%]
Pressure (altimeter): 30.00 inches Hg (1016.0 mb)
Winds: from the SW (230 degrees) at 31 MPH (27 knots; 13.9 m/s)
gusting to 39 MPH (34 knots; 17.5 m/s)
Visibility: 10 or more miles (16+ km)
Ceiling: at least 12,000 feet AGL
Clouds: sky clear below 12,000 feet AGL
Weather: automated observation with no human augmentation;
there may or may not be significant weather present at this time

MAPA DO AERODROMO


Desenvolvido por Virtual Airlines Manager




Modificado por Servidor Brasil Amigos